sensor_id;sensor_type;location;lat;lon;timestamp;pressure;altitude;pressure_sealevel;temperature;humidity
40794;BME280;26502;51.886;15.604;2023-01-28T00:03:30;101632.06;;;-0.47;80.90
40794;BME280;26502;51.886;15.604;2023-01-28T00:08:41;101637.03;;;-0.44;80.86
40794;BME280;26502;51.886;15.604;2023-01-28T00:13:53;101643.26;;;-0.40;80.95
40794;BME280;26502;51.886;15.604;2023-01-28T00:19:06;101641.18;;;-0.40;80.94
40794;BME280;26502;51.886;15.604;2023-01-28T00:24:15;101640.33;;;-0.39;80.84
40794;BME280;26502;51.886;15.604;2023-01-28T00:29:24;101635.77;;;-0.40;80.80
40794;BME280;26502;51.886;15.604;2023-01-28T00:34:37;101634.42;;;-0.44;80.60
40794;BME280;26502;51.886;15.604;2023-01-28T00:39:47;101643.81;;;-0.46;80.71
40794;BME280;26502;51.886;15.604;2023-01-28T00:44:57;101649.87;;;-0.41;80.89
40794;BME280;26502;51.886;15.604;2023-01-28T00:50:11;101649.05;;;-0.39;80.83
40794;BME280;26502;51.886;15.604;2023-01-28T00:55:22;101645.55;;;-0.40;80.66
40794;BME280;26502;51.886;15.604;2023-01-28T01:00:31;101650.13;;;-0.38;80.74
40794;BME280;26502;51.886;15.604;2023-01-28T01:05:41;101655.30;;;-0.40;80.65
40794;BME280;26502;51.886;15.604;2023-01-28T01:10:50;101653.79;;;-0.45;80.52
40794;BME280;26502;51.886;15.604;2023-01-28T01:16:10;101650.77;;;-0.46;80.58
40794;BME280;26502;51.886;15.604;2023-01-28T01:21:24;101654.45;;;-0.46;80.58
40794;BME280;26502;51.886;15.604;2023-01-28T01:26:36;101658.38;;;-0.43;80.68
40794;BME280;26502;51.886;15.604;2023-01-28T01:31:46;101657.08;;;-0.39;80.51
40794;BME280;26502;51.886;15.604;2023-01-28T01:36:58;101653.55;;;-0.40;80.44
40794;BME280;26502;51.886;15.604;2023-01-28T01:42:11;101653.59;;;-0.39;80.42
40794;BME280;26502;51.886;15.604;2023-01-28T01:47:24;101655.48;;;-0.46;80.30
40794;BME280;26502;51.886;15.604;2023-01-28T01:52:39;101653.51;;;-0.54;80.29
40794;BME280;26502;51.886;15.604;2023-01-28T01:57:48;101652.20;;;-0.57;80.25
40794;BME280;26502;51.886;15.604;2023-01-28T02:03:00;101648.14;;;-0.60;80.23
40794;BME280;26502;51.886;15.604;2023-01-28T02:08:18;101646.31;;;-0.56;80.28
40794;BME280;26502;51.886;15.604;2023-01-28T02:13:37;101638.65;;;-0.55;80.26
40794;BME280;26502;51.886;15.604;2023-01-28T02:18:47;101636.92;;;-0.55;80.11
40794;BME280;26502;51.886;15.604;2023-01-28T02:24:21;101639.44;;;-0.53;80.14
40794;BME280;26502;51.886;15.604;2023-01-28T02:29:40;101632.69;;;-0.57;80.03
40794;BME280;26502;51.886;15.604;2023-01-28T02:34:58;101637.48;;;-0.59;80.20
40794;BME280;26502;51.886;15.604;2023-01-28T02:40:14;101641.85;;;-0.65;80.06
40794;BME280;26502;51.886;15.604;2023-01-28T02:45:29;101650.30;;;-0.68;80.08
40794;BME280;26502;51.886;15.604;2023-01-28T02:51:07;101648.77;;;-0.68;80.11
40794;BME280;26502;51.886;15.604;2023-01-28T02:56:42;101643.39;;;-0.60;80.10
40794;BME280;26502;51.886;15.604;2023-01-28T03:01:55;101646.48;;;-0.56;80.19
40794;BME280;26502;51.886;15.604;2023-01-28T03:07:06;101649.36;;;-0.53;79.99
40794;BME280;26502;51.886;15.604;2023-01-28T03:12:22;101656.86;;;-0.53;80.03
40794;BME280;26502;51.886;15.604;2023-01-28T03:17:51;101664.73;;;-0.64;79.89
40794;BME280;26502;51.886;15.604;2023-01-28T03:23:24;101671.98;;;-0.67;79.93
40794;BME280;26502;51.886;15.604;2023-01-28T03:28:55;101670.63;;;-0.72;80.00
40794;BME280;26502;51.886;15.604;2023-01-28T03:34:25;101672.78;;;-0.70;80.00
40794;BME280;26502;51.886;15.604;2023-01-28T03:39:52;101671.09;;;-0.74;80.09
40794;BME280;26502;51.886;15.604;2023-01-28T03:45:04;101667.67;;;-0.77;79.70
40794;BME280;26502;51.886;15.604;2023-01-28T03:50:15;101675.88;;;-0.77;80.08
40794;BME280;26502;51.886;15.604;2023-01-28T03:55:32;101683.99;;;-0.80;79.70
40794;BME280;26502;51.886;15.604;2023-01-28T04:00:41;101691.94;;;-0.82;79.75
40794;BME280;26502;51.886;15.604;2023-01-28T04:06:02;101695.31;;;-0.86;79.67
40794;BME280;26502;51.886;15.604;2023-01-28T04:11:42;101707.35;;;-0.86;79.79
40794;BME280;26502;51.886;15.604;2023-01-28T04:16:57;101712.36;;;-0.88;79.70
40794;BME280;26502;51.886;15.604;2023-01-28T04:22:11;101713.75;;;-0.94;79.67
40794;BME280;26502;51.886;15.604;2023-01-28T04:27:25;101721.60;;;-0.99;79.61
40794;BME280;26502;51.886;15.604;2023-01-28T04:32:36;101723.56;;;-0.97;79.59
40794;BME280;26502;51.886;15.604;2023-01-28T04:38:12;101726.54;;;-0.97;79.58
40794;BME280;26502;51.886;15.604;2023-01-28T04:43:43;101726.22;;;-0.96;79.46
40794;BME280;26502;51.886;15.604;2023-01-28T04:49:11;101725.64;;;-0.98;79.42
40794;BME280;26502;51.886;15.604;2023-01-28T04:54:26;101728.29;;;-0.97;79.27
40794;BME280;26502;51.886;15.604;2023-01-28T04:59:38;101729.28;;;-0.98;79.24
40794;BME280;26502;51.886;15.604;2023-01-28T05:04:48;101732.14;;;-1.02;79.04
40794;BME280;26502;51.886;15.604;2023-01-28T05:10:12;101735.70;;;-1.05;78.99
40794;BME280;26502;51.886;15.604;2023-01-28T05:15:23;101737.26;;;-1.06;79.07
40794;BME280;26502;51.886;15.604;2023-01-28T05:20:33;101738.32;;;-1.10;78.96
40794;BME280;26502;51.886;15.604;2023-01-28T05:25:40;101740.73;;;-1.11;78.81
40794;BME280;26502;51.886;15.604;2023-01-28T05:30:50;101746.77;;;-1.13;78.68
40794;BME280;26502;51.886;15.604;2023-01-28T05:35:59;101752.85;;;-1.14;78.51
40794;BME280;26502;51.886;15.604;2023-01-28T05:41:08;101752.44;;;-1.11;78.37
40794;BME280;26502;51.886;15.604;2023-01-28T05:46:18;101758.45;;;-1.18;78.03
40794;BME280;26502;51.886;15.604;2023-01-28T05:51:52;101764.54;;;-1.25;77.75
40794;BME280;26502;51.886;15.604;2023-01-28T05:57:03;101767.36;;;-1.24;77.69
40794;BME280;26502;51.886;15.604;2023-01-28T06:02:13;101770.77;;;-1.26;77.67
40794;BME280;26502;51.886;15.604;2023-01-28T06:07:22;101773.23;;;-1.25;77.60
40794;BME280;26502;51.886;15.604;2023-01-28T06:12:31;101780.09;;;-1.23;77.57
40794;BME280;26502;51.886;15.604;2023-01-28T06:17:58;101781.19;;;-1.22;77.52
40794;BME280;26502;51.886;15.604;2023-01-28T06:23:10;101786.10;;;-1.21;77.40
40794;BME280;26502;51.886;15.604;2023-01-28T06:28:19;101791.67;;;-1.21;77.31
40794;BME280;26502;51.886;15.604;2023-01-28T06:33:27;101799.45;;;-1.23;77.16
40794;BME280;26502;51.886;15.604;2023-01-28T06:38:37;101804.09;;;-1.25;77.10
40794;BME280;26502;51.886;15.604;2023-01-28T06:43:45;101813.20;;;-1.23;77.23
40794;BME280;26502;51.886;15.604;2023-01-28T06:48:55;101811.31;;;-1.22;77.26
40794;BME280;26502;51.886;15.604;2023-01-28T06:54:03;101803.58;;;-1.25;77.16
40794;BME280;26502;51.886;15.604;2023-01-28T06:59:10;101808.05;;;-1.26;77.13
40794;BME280;26502;51.886;15.604;2023-01-28T07:04:18;101812.34;;;-1.23;77.32
40794;BME280;26502;51.886;15.604;2023-01-28T07:09:26;101814.78;;;-1.18;77.15
40794;BME280;26502;51.886;15.604;2023-01-28T07:14:34;101820.58;;;-1.11;77.14
40794;BME280;26502;51.886;15.604;2023-01-28T07:19:45;101820.26;;;-1.05;77.11
40794;BME280;26502;51.886;15.604;2023-01-28T07:24:52;101821.00;;;-0.98;77.12
40794;BME280;26502;51.886;15.604;2023-01-28T07:30:03;101819.92;;;-1.00;76.89
40794;BME280;26502;51.886;15.604;2023-01-28T07:35:13;101818.45;;;-0.96;77.23
40794;BME280;26502;51.886;15.604;2023-01-28T07:40:22;101818.02;;;-0.94;76.86
40794;BME280;26502;51.886;15.604;2023-01-28T07:45:31;101818.96;;;-0.97;76.85
40794;BME280;26502;51.886;15.604;2023-01-28T07:50:40;101825.76;;;-0.92;76.77
40794;BME280;26502;51.886;15.604;2023-01-28T07:55:50;101818.48;;;-0.85;76.80
40794;BME280;26502;51.886;15.604;2023-01-28T08:01:00;101814.88;;;-0.78;76.73
40794;BME280;26502;51.886;15.604;2023-01-28T08:06:10;101820.06;;;-0.68;76.75
40794;BME280;26502;51.886;15.604;2023-01-28T08:11:19;101822.42;;;-0.60;76.51
40794;BME280;26502;51.886;15.604;2023-01-28T08:16:29;101822.63;;;-0.59;76.53
40794;BME280;26502;51.886;15.604;2023-01-28T08:21:38;101821.30;;;-0.62;76.40
40794;BME280;26502;51.886;15.604;2023-01-28T08:26:48;101824.88;;;-0.65;76.15
40794;BME280;26502;51.886;15.604;2023-01-28T08:31:57;101827.77;;;-0.73;75.85
40794;BME280;26502;51.886;15.604;2023-01-28T08:37:08;101833.02;;;-0.66;76.04
40794;BME280;26502;51.886;15.604;2023-01-28T08:42:17;101835.91;;;-0.64;75.70
40794;BME280;26502;51.886;15.604;2023-01-28T08:47:26;101831.35;;;-0.64;75.55
40794;BME280;26502;51.886;15.604;2023-01-28T08:52:34;101831.59;;;-0.62;75.62
40794;BME280;26502;51.886;15.604;2023-01-28T08:57:44;101839.77;;;-0.63;75.60
40794;BME280;26502;51.886;15.604;2023-01-28T09:02:55;101846.07;;;-0.57;75.75
40794;BME280;26502;51.886;15.604;2023-01-28T09:08:08;101851.25;;;-0.59;75.43
40794;BME280;26502;51.886;15.604;2023-01-28T09:13:17;101854.05;;;-0.59;75.64
40794;BME280;26502;51.886;15.604;2023-01-28T09:18:27;101854.23;;;-0.58;75.45
40794;BME280;26502;51.886;15.604;2023-01-28T09:23:38;101854.13;;;-0.56;75.49
40794;BME280;26502;51.886;15.604;2023-01-28T09:28:48;101859.08;;;-0.54;75.02
40794;BME280;26502;51.886;15.604;2023-01-28T09:33:59;101860.77;;;-0.50;75.01
40794;BME280;26502;51.886;15.604;2023-01-28T09:39:10;101863.09;;;-0.37;75.05
40794;BME280;26502;51.886;15.604;2023-01-28T09:44:39;101859.96;;;-0.26;74.90
40794;BME280;26502;51.886;15.604;2023-01-28T09:50:01;101857.84;;;-0.21;74.75
40794;BME280;26502;51.886;15.604;2023-01-28T09:55:21;101855.83;;;-0.12;74.57
40794;BME280;26502;51.886;15.604;2023-01-28T10:00:36;101851.11;;;-0.07;74.57
40794;BME280;26502;51.886;15.604;2023-01-28T10:05:52;101853.02;;;-0.07;74.35
40794;BME280;26502;51.886;15.604;2023-01-28T10:11:15;101851.13;;;-0.06;73.90
40794;BME280;26502;51.886;15.604;2023-01-28T10:16:25;101853.75;;;-0.06;73.99
40794;BME280;26502;51.886;15.604;2023-01-28T10:21:40;101856.12;;;-0.08;73.68
40794;BME280;26502;51.886;15.604;2023-01-28T10:26:49;101859.33;;;-0.06;73.86
40794;BME280;26502;51.886;15.604;2023-01-28T10:32:03;101866.55;;;-0.04;73.52
40794;BME280;26502;51.886;15.604;2023-01-28T10:37:14;101869.46;;;0.00;73.66
40794;BME280;26502;51.886;15.604;2023-01-28T10:42:28;101870.77;;;-0.03;73.67
40794;BME280;26502;51.886;15.604;2023-01-28T10:47:43;101872.23;;;0.05;73.85
40794;BME280;26502;51.886;15.604;2023-01-28T10:52:58;101865.52;;;0.08;73.55
40794;BME280;26502;51.886;15.604;2023-01-28T10:58:15;101869.79;;;0.05;73.51
40794;BME280;26502;51.886;15.604;2023-01-28T11:03:26;101865.19;;;0.09;73.68
40794;BME280;26502;51.886;15.604;2023-01-28T11:08:43;101871.31;;;0.03;73.41
40794;BME280;26502;51.886;15.604;2023-01-28T11:13:55;101864.83;;;0.02;73.15
40794;BME280;26502;51.886;15.604;2023-01-28T11:19:09;101864.25;;;-0.05;73.18
40794;BME280;26502;51.886;15.604;2023-01-28T11:24:22;101868.05;;;-0.01;73.18
40794;BME280;26502;51.886;15.604;2023-01-28T11:29:34;101867.41;;;0.07;73.19
40794;BME280;26502;51.886;15.604;2023-01-28T11:34:53;101858.20;;;0.08;72.88
40794;BME280;26502;51.886;15.604;2023-01-28T11:40:24;101853.73;;;0.11;73.24
40794;BME280;26502;51.886;15.604;2023-01-28T11:45:43;101857.10;;;0.13;72.96
40794;BME280;26502;51.886;15.604;2023-01-28T11:51:02;101847.06;;;0.22;72.79
40794;BME280;26502;51.886;15.604;2023-01-28T12:02:08;101838.45;;;0.27;72.83
40794;BME280;26502;51.886;15.604;2023-01-28T12:07:39;101828.50;;;0.33;72.52
40794;BME280;26502;51.886;15.604;2023-01-28T12:13:06;101827.37;;;0.30;72.54
40794;BME280;26502;51.886;15.604;2023-01-28T12:18:35;101817.81;;;0.32;72.51
40794;BME280;26502;51.886;15.604;2023-01-28T12:24:02;101813.36;;;0.36;72.36
40794;BME280;26502;51.886;15.604;2023-01-28T12:29:29;101810.85;;;0.40;72.33
40794;BME280;26502;51.886;15.604;2023-01-28T12:35:20;101807.00;;;0.39;72.09
40794;BME280;26502;51.886;15.604;2023-01-28T12:40:52;101801.83;;;0.29;71.97
40794;BME280;26502;51.886;15.604;2023-01-28T12:46:40;101795.21;;;0.37;72.17
40794;BME280;26502;51.886;15.604;2023-01-28T12:52:02;101802.10;;;0.39;71.93
40794;BME280;26502;51.886;15.604;2023-01-28T12:57:22;101800.34;;;0.39;71.92
40794;BME280;26502;51.886;15.604;2023-01-28T13:02:43;101795.26;;;0.45;71.66
40794;BME280;26502;51.886;15.604;2023-01-28T13:08:05;101803.71;;;0.47;71.62
40794;BME280;26502;51.886;15.604;2023-01-28T13:13:29;101807.42;;;0.48;71.86
40794;BME280;26502;51.886;15.604;2023-01-28T13:18:48;101805.99;;;0.48;71.62
40794;BME280;26502;51.886;15.604;2023-01-28T13:24:29;101807.80;;;0.50;71.58
40794;BME280;26502;51.886;15.604;2023-01-28T13:29:58;101819.85;;;0.49;71.77
40794;BME280;26502;51.886;15.604;2023-01-28T13:35:29;101822.42;;;0.47;71.59
40794;BME280;26502;51.886;15.604;2023-01-28T13:40:42;101818.00;;;0.46;71.36
40794;BME280;26502;51.886;15.604;2023-01-28T13:46:05;101818.54;;;0.46;71.31
40794;BME280;26502;51.886;15.604;2023-01-28T13:51:23;101821.66;;;0.45;71.48
40794;BME280;26502;51.886;15.604;2023-01-28T13:56:50;101818.85;;;0.45;71.16
40794;BME280;26502;51.886;15.604;2023-01-28T14:02:38;101814.73;;;0.41;70.98
40794;BME280;26502;51.886;15.604;2023-01-28T14:13:53;101825.70;;;0.52;71.55
40794;BME280;26502;51.886;15.604;2023-01-28T14:19:12;101825.94;;;0.49;70.71
40794;BME280;26502;51.886;15.604;2023-01-28T14:24:25;101835.02;;;0.35;70.81
40794;BME280;26502;51.886;15.604;2023-01-28T14:30:06;101833.67;;;0.19;70.92
40794;BME280;26502;51.886;15.604;2023-01-28T14:35:29;101838.38;;;0.24;71.43
40794;BME280;26502;51.886;15.604;2023-01-28T14:40:44;101839.93;;;0.30;71.13
40794;BME280;26502;51.886;15.604;2023-01-28T14:46:15;101831.11;;;0.33;71.24
40794;BME280;26502;51.886;15.604;2023-01-28T14:51:39;101831.16;;;0.35;71.19
40794;BME280;26502;51.886;15.604;2023-01-28T14:57:17;101826.84;;;0.24;70.73
40794;BME280;26502;51.886;15.604;2023-01-28T15:02:33;101824.35;;;0.22;71.27
40794;BME280;26502;51.886;15.604;2023-01-28T15:07:47;101819.45;;;0.22;71.28
40794;BME280;26502;51.886;15.604;2023-01-28T15:13:03;101826.27;;;-0.02;71.02
40794;BME280;26502;51.886;15.604;2023-01-28T15:18:19;101808.88;;;-0.11;71.14
40794;BME280;26502;51.886;15.604;2023-01-28T15:23:38;101813.84;;;-0.15;71.10
40794;BME280;26502;51.886;15.604;2023-01-28T15:28:56;101815.06;;;-0.03;71.44
40794;BME280;26502;51.886;15.604;2023-01-28T15:34:15;101804.46;;;0.24;71.74
40794;BME280;26502;51.886;15.604;2023-01-28T15:39:30;101809.02;;;0.06;71.03
40794;BME280;26502;51.886;15.604;2023-01-28T15:44:46;101809.41;;;0.01;71.32
40794;BME280;26502;51.886;15.604;2023-01-28T15:50:01;101805.02;;;-0.06;71.03
40794;BME280;26502;51.886;15.604;2023-01-28T15:55:39;101803.40;;;-0.08;71.32
40794;BME280;26502;51.886;15.604;2023-01-28T16:00:50;101808.90;;;-0.11;71.29
40794;BME280;26502;51.886;15.604;2023-01-28T16:06:20;101802.60;;;-0.05;71.23
40794;BME280;26502;51.886;15.604;2023-01-28T16:11:35;101798.24;;;0.08;71.44
40794;BME280;26502;51.886;15.604;2023-01-28T16:16:53;101800.83;;;-0.18;70.80
40794;BME280;26502;51.886;15.604;2023-01-28T16:22:04;101809.73;;;-0.41;71.16
40794;BME280;26502;51.886;15.604;2023-01-28T16:27:25;101816.36;;;-0.41;71.38
40794;BME280;26502;51.886;15.604;2023-01-28T16:32:41;101826.57;;;-0.45;71.14
40794;BME280;26502;51.886;15.604;2023-01-28T16:37:54;101823.55;;;-0.40;71.52
40794;BME280;26502;51.886;15.604;2023-01-28T16:43:07;101812.54;;;-0.29;71.46
40794;BME280;26502;51.886;15.604;2023-01-28T16:48:22;101817.30;;;-0.44;71.33
40794;BME280;26502;51.886;15.604;2023-01-28T16:53:38;101819.88;;;-0.46;71.41
40794;BME280;26502;51.886;15.604;2023-01-28T16:58:50;101822.23;;;-0.44;71.42
40794;BME280;26502;51.886;15.604;2023-01-28T17:04:00;101828.63;;;-0.40;71.40
40794;BME280;26502;51.886;15.604;2023-01-28T17:09:17;101842.88;;;-0.37;71.57
40794;BME280;26502;51.886;15.604;2023-01-28T17:14:27;101853.79;;;-0.39;71.57
40794;BME280;26502;51.886;15.604;2023-01-28T17:19:40;101859.18;;;-0.40;71.73
40794;BME280;26502;51.886;15.604;2023-01-28T17:24:51;101863.58;;;-0.49;71.55
40794;BME280;26502;51.886;15.604;2023-01-28T17:30:05;101869.27;;;-0.58;71.66
40794;BME280;26502;51.886;15.604;2023-01-28T17:35:16;101869.73;;;-0.64;71.62
40794;BME280;26502;51.886;15.604;2023-01-28T17:40:28;101871.25;;;-0.71;71.69
40794;BME280;26502;51.886;15.604;2023-01-28T17:45:40;101872.13;;;-0.72;71.67
40794;BME280;26502;51.886;15.604;2023-01-28T17:50:51;101873.05;;;-0.75;71.75
40794;BME280;26502;51.886;15.604;2023-01-28T17:56:05;101863.63;;;-0.75;71.74
40794;BME280;26502;51.886;15.604;2023-01-28T18:01:14;101865.85;;;-0.71;71.82
40794;BME280;26502;51.886;15.604;2023-01-28T18:06:23;101865.25;;;-0.68;71.78
40794;BME280;26502;51.886;15.604;2023-01-28T18:11:33;101858.65;;;-0.73;71.94
40794;BME280;26502;51.886;15.604;2023-01-28T18:16:42;101876.63;;;-0.78;72.02
40794;BME280;26502;51.886;15.604;2023-01-28T18:21:51;101889.16;;;-0.67;72.26
40794;BME280;26502;51.886;15.604;2023-01-28T18:27:00;101900.31;;;-0.63;72.04
40794;BME280;26502;51.886;15.604;2023-01-28T18:32:10;101904.41;;;-0.71;71.99
40794;BME280;26502;51.886;15.604;2023-01-28T18:37:18;101910.06;;;-0.74;72.27
40794;BME280;26502;51.886;15.604;2023-01-28T18:42:26;101904.99;;;-0.85;72.15
40794;BME280;26502;51.886;15.604;2023-01-28T18:47:34;101917.75;;;-0.89;72.24
40794;BME280;26502;51.886;15.604;2023-01-28T18:52:43;101921.20;;;-0.85;72.48
40794;BME280;26502;51.886;15.604;2023-01-28T18:57:52;101930.63;;;-0.74;72.63
40794;BME280;26502;51.886;15.604;2023-01-28T19:03:02;101931.30;;;-0.75;72.43
40794;BME280;26502;51.886;15.604;2023-01-28T19:08:13;101923.13;;;-0.90;72.40
40794;BME280;26502;51.886;15.604;2023-01-28T19:13:25;101932.82;;;-0.97;72.53
40794;BME280;26502;51.886;15.604;2023-01-28T19:18:34;101930.19;;;-0.93;72.77
40794;BME280;26502;51.886;15.604;2023-01-28T19:23:43;101931.36;;;-0.94;72.79
40794;BME280;26502;51.886;15.604;2023-01-28T19:28:54;101919.80;;;-0.91;72.90
40794;BME280;26502;51.886;15.604;2023-01-28T19:34:03;101905.00;;;-0.90;72.87
40794;BME280;26502;51.886;15.604;2023-01-28T19:39:14;101909.56;;;-0.94;72.83
40794;BME280;26502;51.886;15.604;2023-01-28T19:44:24;101910.87;;;-0.97;72.89
40794;BME280;26502;51.886;15.604;2023-01-28T19:49:35;101919.05;;;-1.07;72.93
40794;BME280;26502;51.886;15.604;2023-01-28T19:54:47;101904.36;;;-1.08;73.19
40794;BME280;26502;51.886;15.604;2023-01-28T19:59:55;101878.31;;;-1.00;73.26
40794;BME280;26502;51.886;15.604;2023-01-28T20:05:06;101878.85;;;-0.95;73.29
40794;BME280;26502;51.886;15.604;2023-01-28T20:10:21;101881.14;;;-0.89;73.34
40794;BME280;26502;51.886;15.604;2023-01-28T20:15:32;101888.27;;;-0.84;73.31
40794;BME280;26502;51.886;15.604;2023-01-28T20:20:42;101899.69;;;-0.82;73.39
40794;BME280;26502;51.886;15.604;2023-01-28T20:25:58;101903.66;;;-0.78;73.37
40794;BME280;26502;51.886;15.604;2023-01-28T20:31:13;101898.60;;;-0.88;73.24
40794;BME280;26502;51.886;15.604;2023-01-28T20:36:22;101908.06;;;-0.92;73.50
40794;BME280;26502;51.886;15.604;2023-01-28T20:41:32;101910.43;;;-0.89;73.48
40794;BME280;26502;51.886;15.604;2023-01-28T20:46:42;101911.94;;;-0.91;73.46
40794;BME280;26502;51.886;15.604;2023-01-28T20:51:51;101908.92;;;-0.87;73.54
40794;BME280;26502;51.886;15.604;2023-01-28T20:57:03;101897.95;;;-0.87;73.59
40794;BME280;26502;51.886;15.604;2023-01-28T21:02:12;101904.92;;;-0.87;73.62
40794;BME280;26502;51.886;15.604;2023-01-28T21:07:23;101912.56;;;-0.88;73.63
40794;BME280;26502;51.886;15.604;2023-01-28T21:12:33;101916.88;;;-0.89;73.64
40794;BME280;26502;51.886;15.604;2023-01-28T21:17:42;101919.65;;;-0.90;73.62
40794;BME280;26502;51.886;15.604;2023-01-28T21:22:54;101920.34;;;-0.90;73.87
40794;BME280;26502;51.886;15.604;2023-01-28T21:28:04;101916.55;;;-0.94;73.76
40794;BME280;26502;51.886;15.604;2023-01-28T21:33:14;101924.13;;;-0.92;73.91
40794;BME280;26502;51.886;15.604;2023-01-28T21:38:25;101927.86;;;-0.90;74.00
40794;BME280;26502;51.886;15.604;2023-01-28T21:43:35;101915.45;;;-0.90;73.91
40794;BME280;26502;51.886;15.604;2023-01-28T21:48:42;101910.02;;;-1.01;74.02
40794;BME280;26502;51.886;15.604;2023-01-28T21:53:50;101894.38;;;-1.05;74.03
40794;BME280;26502;51.886;15.604;2023-01-28T21:58:59;101898.20;;;-1.05;73.99
40794;BME280;26502;51.886;15.604;2023-01-28T22:04:26;101897.12;;;-1.01;74.08
40794;BME280;26502;51.886;15.604;2023-01-28T22:09:34;101901.27;;;-0.97;74.07
40794;BME280;26502;51.886;15.604;2023-01-28T22:14:42;101898.15;;;-0.91;74.09
40794;BME280;26502;51.886;15.604;2023-01-28T22:19:51;101908.93;;;-0.82;74.12
40794;BME280;26502;51.886;15.604;2023-01-28T22:24:59;101901.42;;;-0.87;73.92
40794;BME280;26502;51.886;15.604;2023-01-28T22:30:08;101901.42;;;-0.97;73.94
40794;BME280;26502;51.886;15.604;2023-01-28T22:35:16;101896.98;;;-1.00;73.87
40794;BME280;26502;51.886;15.604;2023-01-28T22:40:24;101893.77;;;-1.01;73.87
40794;BME280;26502;51.886;15.604;2023-01-28T22:45:32;101896.93;;;-1.01;73.76
40794;BME280;26502;51.886;15.604;2023-01-28T22:50:40;101892.73;;;-1.02;73.70
40794;BME280;26502;51.886;15.604;2023-01-28T22:55:50;101892.96;;;-1.10;73.90
40794;BME280;26502;51.886;15.604;2023-01-28T23:01:00;101893.74;;;-1.08;73.73
40794;BME280;26502;51.886;15.604;2023-01-28T23:06:10;101885.38;;;-1.08;73.61
40794;BME280;26502;51.886;15.604;2023-01-28T23:11:18;101884.81;;;-1.14;73.69
40794;BME280;26502;51.886;15.604;2023-01-28T23:16:34;101888.77;;;-1.16;73.59
40794;BME280;26502;51.886;15.604;2023-01-28T23:21:59;101894.20;;;-1.15;73.60
40794;BME280;26502;51.886;15.604;2023-01-28T23:27:24;101890.61;;;-1.17;73.59
40794;BME280;26502;51.886;15.604;2023-01-28T23:32:33;101890.66;;;-1.22;73.60
40794;BME280;26502;51.886;15.604;2023-01-28T23:37:41;101880.45;;;-1.19;73.52
40794;BME280;26502;51.886;15.604;2023-01-28T23:42:50;101866.34;;;-1.24;73.46
40794;BME280;26502;51.886;15.604;2023-01-28T23:47:58;101855.13;;;-1.26;73.60
40794;BME280;26502;51.886;15.604;2023-01-28T23:53:05;101858.65;;;-1.29;73.64
40794;BME280;26502;51.886;15.604;2023-01-28T23:58:17;101860.11;;;-1.33;73.46
